Time;durP1;ratioP1;P1;durP2;ratioP2;P2;SDS_P1;SDS_P2;PMS_P1;PMS_P2;Temp;Humidity;BMP_temperature;BMP_pressure;BME280_temperature;BME280_humidity;BME280_pressure;Samples;Min_cycle;Max_cycle;Signal;HPM_P1;HPM_P2
2022/11/25 00:01:31;;;;;;;16.03;4.77;;;;;2.20;96215.00;;;;8467498;28;20260;-74
2022/11/25 00:05:34;;;;;;;13.07;5.07;;;;;2.20;96217.00;;;;8467404;28;20512;-74
2022/11/25 00:09:38;;;;;;;9.67;3.87;;;;;2.20;96221.00;;;;8466236;28;20252;-74
2022/11/25 00:14:15;;;;;;;28.03;4.77;;;;;2.20;96231.00;;;;8466427;28;20220;-74
2022/11/25 00:18:19;;;;;;;17.00;5.00;;;;;2.20;96232.00;;;;8465809;28;20197;-74
2022/11/25 00:22:22;;;;;;;32.90;5.43;;;;;2.10;96219.00;;;;8465177;28;20225;-73
2022/11/25 00:26:26;;;;;;;64.80;8.00;;;;;2.10;96217.00;;;;8466462;28;20528;-73
2022/11/25 00:30:29;;;;;;;94.80;10.43;;;;;2.10;96229.00;;;;8465644;28;20544;-73
2022/11/25 00:34:34;;;;;;;41.97;6.13;;;;;2.10;96229.00;;;;8465425;28;20267;-73
2022/11/25 00:38:38;;;;;;;29.83;5.73;;;;;2.20;96242.00;;;;8465818;28;20626;-73
2022/11/25 00:47:35;;;;;;;26.67;5.70;;;;;2.30;96251.00;;;;8466076;28;20542;-73
2022/11/25 00:51:39;;;;;;;44.73;6.33;;;;;2.40;96255.00;;;;8465158;28;20623;-73
2022/11/25 01:00:04;;;;;;;86.57;8.17;;;;;2.40;96258.00;;;;8466274;28;20205;-72
2022/11/25 01:04:41;;;;;;;30.27;6.53;;;;;2.30;96260.00;;;;8464905;28;20201;-72
2022/11/25 01:08:46;;;;;;;27.13;6.07;;;;;2.40;96270.00;;;;8465162;28;20635;-72
2022/11/25 01:12:49;;;;;;;31.30;6.50;;;;;2.50;96265.00;;;;8464637;28;20198;-72
2022/11/25 01:16:52;;;;;;;59.63;7.13;;;;;2.60;96281.00;;;;8464372;28;20250;-72
2022/11/25 01:20:55;;;;;;;54.63;8.07;;;;;2.60;96267.00;;;;8465325;28;20222;-72
2022/11/25 01:25:00;;;;;;;41.90;6.73;;;;;2.60;96275.00;;;;8464809;28;20233;-72
2022/11/25 01:29:34;;;;;;;54.33;7.13;;;;;2.50;96266.00;;;;8462999;28;20685;-71
2022/11/25 01:33:38;;;;;;;78.57;9.27;;;;;2.50;96256.00;;;;8464112;28;20205;-71
2022/11/25 01:37:41;;;;;;;21.50;5.83;;;;;2.50;96267.00;;;;8463762;28;20212;-72
2022/11/25 01:41:46;;;;;;;31.20;6.30;;;;;2.50;96274.00;;;;8464000;28;20225;-72
2022/11/25 01:46:25;;;;;;;27.53;6.03;;;;;2.60;96270.00;;;;8463649;28;20192;-71
2022/11/25 01:50:29;;;;;;;44.47;6.90;;;;;2.70;96272.00;;;;8465224;28;20198;-71
2022/11/25 01:54:38;;;;;;;56.13;7.93;;;;;2.80;96276.00;;;;8464347;28;20195;-71
2022/11/25 01:58:43;;;;;;;52.07;6.93;;;;;2.90;96281.00;;;;8464777;28;20213;-71
2022/11/25 02:02:49;;;;;;;152.17;11.87;;;;;3.00;96275.00;;;;8464047;28;20707;-71
2022/11/25 02:07:26;;;;;;;56.80;8.60;;;;;3.00;96279.00;;;;8464183;28;20190;-71
2022/11/25 02:11:30;;;;;;;150.93;10.63;;;;;3.10;96273.00;;;;8463970;28;20236;-71
2022/11/25 02:15:35;;;;;;;224.90;14.63;;;;;3.10;96259.00;;;;8463850;28;20571;-71
2022/11/25 02:19:55;;;;;;;160.57;11.93;;;;;3.10;96256.00;;;;8464059;28;20206;-71
2022/11/25 02:24:20;;;;;;;189.37;13.37;;;;;3.10;96256.00;;;;8470407;28;20275;-72
2022/11/25 02:28:27;;;;;;;221.03;13.33;;;;;3.30;96257.00;;;;8469792;28;20271;-72
2022/11/25 02:32:30;;;;;;;196.67;12.03;;;;;3.30;96261.00;;;;8469473;28;20210;-71
2022/11/25 02:36:34;;;;;;;170.33;12.17;;;;;3.50;96249.00;;;;8469388;28;20201;-71
2022/11/25 02:40:42;;;;;;;118.23;11.10;;;;;3.60;96231.00;;;;8469321;28;20187;-71
2022/11/25 02:45:13;;;;;;;172.87;11.77;;;;;3.70;96243.00;;;;8469147;28;20186;-71
2022/11/25 02:49:17;;;;;;;173.07;13.07;;;;;3.80;96243.00;;;;8469850;28;20202;-72
2022/11/25 02:53:21;;;;;;;95.67;10.40;;;;;3.90;96244.00;;;;8469019;28;20199;-72
2022/11/25 02:57:24;;;;;;;190.83;12.67;;;;;4.00;96242.00;;;;8469241;28;20205;-72
2022/11/25 03:01:28;;;;;;;162.47;13.07;;;;;4.00;96240.00;;;;8469225;28;20244;-71
2022/11/25 03:05:33;;;;;;;245.53;14.80;;;;;4.10;96242.00;;;;8468624;28;20199;-72
2022/11/25 03:09:36;;;;;;;226.93;14.57;;;;;4.10;96246.00;;;;8468399;28;20198;-71
2022/11/25 03:13:39;;;;;;;216.00;13.93;;;;;4.10;96250.00;;;;8468811;28;20189;-71
2022/11/25 03:17:42;;;;;;;209.07;13.67;;;;;4.10;96248.00;;;;8468095;28;20190;-71
2022/11/25 03:21:47;;;;;;;215.83;13.60;;;;;4.00;96251.00;;;;8467753;28;20271;-71
2022/11/25 03:25:50;;;;;;;120.20;10.50;;;;;4.00;96248.00;;;;8468780;28;20506;-71
2022/11/25 03:29:56;;;;;;;203.83;13.57;;;;;3.90;96249.00;;;;8468852;28;20211;-71
2022/11/25 03:34:32;;;;;;;145.17;11.43;;;;;3.90;96248.00;;;;8465049;28;20187;-71
2022/11/25 03:38:38;;;;;;;142.47;11.10;;;;;3.90;96243.00;;;;8464048;28;20190;-71
2022/11/25 03:43:11;;;;;;;100.57;9.70;;;;;3.80;96250.00;;;;8467090;28;20222;-71
2022/11/25 03:47:48;;;;;;;94.10;10.40;;;;;3.70;96249.00;;;;8466858;28;20294;-70
2022/11/25 03:51:51;;;;;;;93.17;8.00;;;;;3.60;96244.00;;;;8467354;28;20247;-71
2022/11/25 03:55:56;;;;;;;93.93;8.67;;;;;3.50;96259.00;;;;8466639;28;20232;-70
2022/11/25 04:05:31;;;;;;;91.70;8.27;;;;;3.30;96253.00;;;;8466962;28;20187;-71
2022/11/25 04:10:08;;;;;;;62.70;7.93;;;;;3.30;96269.00;;;;8466141;28;20193;-71
2022/11/25 04:14:13;;;;;;;87.63;9.57;;;;;3.30;96277.00;;;;8466473;28;20190;-70
2022/11/25 04:18:46;;;;;;;139.50;10.50;;;;;3.30;96281.00;;;;8466209;28;20684;-70
2022/11/25 04:23:24;;;;;;;86.80;7.47;;;;;3.20;96271.00;;;;8465815;28;20221;-71
2022/11/25 04:28:01;;;;;;;127.80;9.20;;;;;3.20;96278.00;;;;8465984;28;20651;-72
2022/11/25 04:32:39;;;;;;;114.30;9.13;;;;;3.10;96276.00;;;;8465511;28;20208;-71
2022/11/25 04:37:13;;;;;;;333.60;25.13;;;;;3.10;96284.00;;;;8465452;28;20195;-71
2022/11/25 04:42:30;;;;;;;87.70;8.43;;;;;3.00;96282.00;;;;8465219;28;20217;-71
2022/11/25 04:46:16;;;;;;;121.30;8.73;;;;;3.00;96281.00;;;;8465922;28;20195;-71
2022/11/25 04:50:52;;;;;;;97.97;8.03;;;;;2.90;96275.00;;;;8464614;28;20245;-71
2022/11/25 04:54:55;;;;;;;104.47;7.73;;;;;2.90;96271.00;;;;8465383;28;20198;-71
2022/11/25 05:03:34;;;;;;;101.80;9.20;;;;;2.90;96287.00;;;;8465143;28;20644;-71
2022/11/25 05:07:38;;;;;;;252.20;13.63;;;;;2.90;96283.00;;;;8465569;28;20650;-71
2022/11/25 05:12:18;;;;;;;191.67;11.43;;;;;2.90;96282.00;;;;8464744;28;20194;-71
2022/11/25 05:16:21;;;;;;;120.87;9.37;;;;;2.90;96285.00;;;;8464450;28;20190;-71
2022/11/25 05:20:24;;;;;;;113.13;9.23;;;;;3.00;96273.00;;;;8465272;28;20209;-71
2022/11/25 05:24:28;;;;;;;114.83;8.70;;;;;3.00;96269.00;;;;8462223;28;20237;-72
2022/11/25 05:29:02;;;;;;;139.13;9.70;;;;;3.00;96254.00;;;;8464028;28;20221;-72
2022/11/25 05:33:06;;;;;;;103.37;9.43;;;;;3.00;96269.00;;;;8464334;28;20198;-72
2022/11/25 05:37:43;;;;;;;142.40;11.20;;;;;3.00;96276.00;;;;8465418;28;20263;-71
2022/11/25 05:42:19;;;;;;;153.77;11.43;;;;;3.10;96283.00;;;;8461827;28;20273;-72
2022/11/25 05:46:53;;;;;;;162.90;11.97;;;;;3.00;96285.00;;;;8464825;28;20627;-73
2022/11/25 05:51:29;;;;;;;129.73;11.17;;;;;3.10;96279.00;;;;8463249;28;20205;-72
2022/11/25 05:56:07;;;;;;;178.20;14.60;;;;;3.20;96280.00;;;;8466206;28;20190;-72
2022/11/25 06:00:45;;;;;;;174.67;14.57;;;;;3.20;96296.00;;;;8462951;28;20202;-73
2022/11/25 06:05:19;;;;;;;125.63;11.70;;;;;3.30;96295.00;;;;8463770;28;20214;-73
2022/11/25 06:09:56;;;;;;;133.73;12.77;;;;;3.30;96299.00;;;;8470816;28;20191;-73
2022/11/25 06:14:32;;;;;;;180.43;15.87;;;;;3.40;96291.00;;;;8469578;28;20202;-73
2022/11/25 06:19:11;;;;;;;245.20;16.50;;;;;3.30;96273.00;;;;8470225;28;20194;-72
2022/11/25 06:23:45;;;;;;;171.00;13.30;;;;;3.30;96287.00;;;;8469015;28;20229;-72
2022/11/25 06:28:22;;;;;;;368.60;20.13;;;;;3.40;96293.00;;;;8468629;28;20222;-72
2022/11/25 06:32:59;;;;;;;243.57;17.13;;;;;3.50;96287.00;;;;8470000;28;20202;-72
2022/11/25 06:37:37;;;;;;;305.23;19.67;;;;;3.60;96298.00;;;;8469130;28;20711;-69
2022/11/25 06:42:11;;;;;;;220.63;18.50;;;;;3.60;96294.00;;;;8468909;28;20627;-70
2022/11/25 06:46:48;;;;;;;307.30;21.67;;;;;3.70;96303.00;;;;8468806;28;20242;-70
2022/11/25 06:51:25;;;;;;;324.47;80.87;;;;;3.70;96305.00;;;;8468338;28;20198;-70
2022/11/25 06:56:04;;;;;;;317.83;39.73;;;;;3.70;96309.00;;;;8468433;28;20201;-70
2022/11/25 07:00:38;;;;;;;264.07;30.57;;;;;3.70;96312.00;;;;8468542;28;20197;-71
2022/11/25 07:05:15;;;;;;;243.90;20.80;;;;;3.70;96306.00;;;;8468983;28;20214;-71
2022/11/25 07:09:52;;;;;;;434.70;56.60;;;;;3.80;96317.00;;;;8466069;28;20197;-71
2022/11/25 07:14:30;;;;;;;167.30;20.67;;;;;3.90;96326.00;;;;8467500;28;20198;-71
2022/11/25 07:19:05;;;;;;;465.50;29.77;;;;;4.00;96329.00;;;;8467787;28;20638;-72
2022/11/25 07:23:41;;;;;;;155.73;23.13;;;;;4.00;96328.00;;;;8467003;28;20218;-72
2022/11/25 07:28:21;;;;;;;149.40;26.73;;;;;4.00;96335.00;;;;8467821;28;20679;-73
2022/11/25 07:32:57;;;;;;;304.83;23.77;;;;;4.00;96325.00;;;;8468825;28;20236;-73
2022/11/25 07:37:31;;;;;;;235.43;18.40;;;;;4.00;96320.00;;;;8467615;28;20667;-73
2022/11/25 07:42:07;;;;;;;341.47;24.60;;;;;4.00;96331.00;;;;8467733;28;20281;-75
2022/11/25 07:46:46;;;;;;;270.20;20.50;;;;;4.10;96340.00;;;;8467285;28;20198;-74
2022/11/25 07:51:22;;;;;;;260.40;19.83;;;;;4.20;96347.00;;;;8466418;28;20749;-77
2022/11/25 07:56:00;;;;;;;200.50;18.73;;;;;4.20;96347.00;;;;8467263;28;20179;-78
2022/11/25 08:05:01;;;;;;;236.50;21.30;;;;;4.30;96354.00;;;;8465542;28;20223;-78
2022/11/25 08:09:37;;;;;;;212.90;18.10;;;;;4.40;96369.00;;;;8467276;28;20190;-77
2022/11/25 08:14:12;;;;;;;258.20;21.13;;;;;4.50;96357.00;;;;8461489;28;20194;-78
2022/11/25 08:18:49;;;;;;;404.57;28.20;;;;;4.60;96354.00;;;;8465596;28;20275;-79
2022/11/25 08:23:26;;;;;;;195.43;18.73;;;;;4.70;96355.00;;;;8465053;28;20256;-79
2022/11/25 08:28:02;;;;;;;102.47;17.60;;;;;4.70;96351.00;;;;8464260;28;20268;-79
2022/11/25 08:32:37;;;;;;;74.53;15.43;;;;;4.80;96356.00;;;;8465781;28;20286;-79
2022/11/25 08:37:11;;;;;;;51.77;13.67;;;;;4.90;96359.00;;;;8465396;28;20239;-78
2022/11/25 08:41:48;;;;;;;55.13;15.07;;;;;5.00;96369.00;;;;8465094;28;20246;-78
2022/11/25 08:46:29;;;;;;;60.03;14.43;;;;;5.20;96377.00;;;;8464826;28;20282;-79
2022/11/25 08:51:00;;;;;;;43.07;14.07;;;;;5.50;96385.00;;;;8465309;28;20218;-79
2022/11/25 08:55:38;;;;;;;52.27;14.23;;;;;5.70;96386.00;;;;8464870;27;20248;-78
2022/11/25 09:04:41;;;;;;;42.37;13.80;;;;;5.70;96380.00;;;;8465272;28;20272;-78
2022/11/25 09:08:45;;;;;;;41.60;12.37;;;;;5.80;96391.00;;;;8464800;28;20551;-78
2022/11/25 09:13:19;;;;;;;41.10;13.80;;;;;5.90;96397.00;;;;8465424;28;20505;-79
2022/11/25 09:17:22;;;;;;;46.93;15.23;;;;;6.00;96410.00;;;;8465528;28;20248;-79
2022/11/25 09:21:27;;;;;;;47.80;15.23;;;;;6.00;96408.00;;;;8464148;28;20252;-79
2022/11/25 09:25:31;;;;;;;33.67;12.77;;;;;5.90;96418.00;;;;8464109;28;20218;-79
2022/11/25 09:29:34;;;;;;;41.10;15.33;;;;;5.80;96416.00;;;;8464451;28;20272;-80
2022/11/25 09:33:38;;;;;;;45.23;15.13;;;;;5.70;96423.00;;;;8471953;28;20199;-79
2022/11/25 09:38:16;;;;;;;37.83;14.37;;;;;5.80;96410.00;;;;8470895;28;20619;-79
2022/11/25 09:48:23;;;;;;;36.27;12.80;;;;;5.90;96396.00;;;;8399291;28;20255;-80
2022/11/25 09:52:38;;;;;;;39.37;12.70;;;;;5.90;96396.00;;;;8457902;28;20223;-80
2022/11/25 09:57:13;;;;;;;38.40;13.13;;;;;5.90;96399.00;;;;8469781;28;20199;-81
2022/11/25 10:06:51;;;;;;;37.17;12.80;;;;;5.90;96405.00;;;;8467316;28;20555;-80
2022/11/25 10:11:27;;;;;;;40.17;13.03;;;;;6.00;96408.00;;;;8466279;28;20269;-77
2022/11/25 10:16:03;;;;;;;37.87;12.80;;;;;6.10;96399.00;;;;8465091;28;20195;-77
2022/11/25 10:20:35;;;;;;;36.83;13.47;;;;;6.40;96389.00;;;;8467723;28;20187;-77
2022/11/25 10:25:14;;;;;;;40.80;14.60;;;;;6.70;96398.00;;;;8465670;28;20221;-79
2022/11/25 10:29:46;;;;;;;46.33;15.53;;;;;6.70;96396.00;;;;8469961;28;20324;-79
2022/11/25 10:34:23;;;;;;;36.93;14.30;;;;;6.70;96394.00;;;;8468954;28;20552;-80
2022/11/25 10:38:57;;;;;;;53.30;15.40;;;;;6.60;96382.00;;;;8470242;28;20225;-79
2022/11/25 10:43:36;;;;;;;44.63;16.77;;;;;6.70;96384.00;;;;8466704;28;20241;-81
2022/11/25 10:48:22;;;;;;;52.73;18.47;;;;;6.80;96367.00;;;;8468448;28;20195;-80
2022/11/25 10:52:57;;;;;;;42.80;17.33;;;;;6.90;96373.00;;;;8468430;28;20194;-79
2022/11/25 10:57:29;;;;;;;47.27;17.93;;;;;7.10;96368.00;;;;8467466;28;20206;-77
2022/11/25 11:02:13;;;;;;;43.37;17.67;;;;;7.20;96373.00;;;;8466179;28;20691;-78
2022/11/25 11:06:31;;;;;;;40.90;16.77;;;;;7.20;96372.00;;;;8467668;28;20222;-76
2022/11/25 11:10:36;;;;;;;42.97;17.37;;;;;7.20;96373.00;;;;8467908;28;20255;-77
2022/11/25 11:15:15;;;;;;;44.33;17.60;;;;;7.20;96387.00;;;;8467779;28;20199;-77
2022/11/25 11:19:24;;;;;;;46.57;17.13;;;;;7.10;96372.00;;;;8465861;28;20182;-77
2022/11/25 11:23:59;;;;;;;48.53;17.93;;;;;7.00;96374.00;;;;8466273;28;20209;-76
2022/11/25 11:28:41;;;;;;;45.03;18.10;;;;;7.00;96387.00;;;;8465940;28;20215;-77
2022/11/25 11:32:56;;;;;;;40.97;16.07;;;;;7.10;96381.00;;;;8467572;28;20191;-77
2022/11/25 11:37:39;;;;;;;41.63;16.17;;;;;7.20;96381.00;;;;8465669;28;20584;-75
2022/11/25 11:41:50;;;;;;;44.90;18.47;;;;;7.40;96370.00;;;;8460198;28;20199;-75
2022/11/25 11:46:24;;;;;;;46.07;18.77;;;;;7.70;96377.00;;;;8465124;28;20226;-75
2022/11/25 11:50:32;;;;;;;40.27;17.50;;;;;7.80;96376.00;;;;8465330;28;20194;-76
2022/11/25 11:55:12;;;;;;;44.13;17.50;;;;;7.70;96380.00;;;;8464626;28;20187;-75
2022/11/25 11:59:45;;;;;;;41.57;17.73;;;;;7.60;96370.00;;;;8466076;28;20628;-74
2022/11/25 12:04:21;;;;;;;43.70;16.73;;;;;7.50;96376.00;;;;8466348;28;20194;-73
2022/11/25 12:09:01;;;;;;;39.90;17.33;;;;;7.40;96379.00;;;;8463558;28;20225;-76
2022/11/25 12:13:36;;;;;;;38.83;16.33;;;;;7.50;96374.00;;;;8466245;28;20203;-76
2022/11/25 12:18:13;;;;;;;36.20;16.10;;;;;7.60;96379.00;;;;8465275;28;20264;-78
2022/11/25 12:22:46;;;;;;;34.55;14.82;;;;;7.70;96372.00;;;;8466413;28;20505;-78
2022/11/25 12:27:23;;;;;;;25.70;14.10;;;;;7.70;96369.00;;;;8464652;28;20274;-78
2022/11/25 12:31:57;;;;;;;25.77;13.57;;;;;7.80;96381.00;;;;8466051;28;20252;-78
2022/11/25 12:36:35;;;;;;;26.70;13.73;;;;;7.80;96381.00;;;;8463713;28;20305;-78
2022/11/25 12:40:44;;;;;;;26.52;13.52;;;;;7.90;96375.00;;;;8464004;28;20583;-78
2022/11/25 12:45:15;;;;;;;27.47;13.43;;;;;7.90;96389.00;;;;8465667;28;20226;-78
2022/11/25 12:49:23;;;;;;;28.40;14.73;;;;;7.80;96390.00;;;;8466343;28;20194;-79
2022/11/25 12:53:35;;;;;;;31.02;16.83;;;;;7.70;96397.00;;;;8464118;28;20190;-80
2022/11/25 12:58:19;;;;;;;20.13;11.63;;;;;7.60;96389.00;;;;8464576;28;20205;-78
2022/11/25 13:02:56;;;;;;;25.10;13.67;;;;;7.50;96394.00;;;;8464047;28;20198;-77
2022/11/25 13:07:27;;;;;;;23.60;12.73;;;;;7.50;96401.00;;;;8464690;28;20214;-77
2022/11/25 13:12:07;;;;;;;23.33;12.57;;;;;7.40;96403.00;;;;8461919;28;20194;-77
2022/11/25 13:16:12;;;;;;;25.10;12.80;;;;;7.40;96406.00;;;;8465119;28;20198;-77
2022/11/25 13:20:47;;;;;;;41.37;22.50;;;;;7.30;96415.00;;;;8463721;28;20247;-77
2022/11/25 13:24:52;;;;;;;20.87;12.23;;;;;7.30;96400.00;;;;8464075;28;20257;-77
2022/11/25 13:29:00;;;;;;;20.40;13.10;;;;;7.30;96404.00;;;;8464174;28;20218;-77
2022/11/25 13:33:51;;;;;;;23.87;12.80;;;;;7.30;96394.00;;;;8462041;28;20195;-77
2022/11/25 13:37:54;;;;;;;20.90;12.13;;;;;7.30;96413.00;;;;8463950;28;20191;-77
2022/11/25 13:42:28;;;;;;;21.13;13.23;;;;;7.30;96415.00;;;;8464933;28;20277;-77
2022/11/25 13:46:39;;;;;;;23.20;12.27;;;;;7.20;96410.00;;;;8461589;28;20234;-76
2022/11/25 13:50:42;;;;;;;21.80;12.90;;;;;7.30;96423.00;;;;8463558;28;20203;-76
2022/11/25 13:55:34;;;;;;;20.67;12.33;;;;;7.20;96429.00;;;;8462356;28;20186;-76
2022/11/25 13:59:50;;;;;;;24.13;12.07;;;;;7.30;96418.00;;;;8463990;28;20241;-75
2022/11/25 14:03:59;;;;;;;22.73;13.33;;;;;7.30;96421.00;;;;8464432;28;20301;-75
2022/11/25 14:08:11;;;;;;;29.53;14.87;;;;;7.30;96431.00;;;;8463447;28;20555;-76
2022/11/25 14:12:46;;;;;;;23.83;13.93;;;;;7.20;96455.00;;;;8461963;28;20323;-76
2022/11/25 14:17:04;;;;;;;27.63;14.27;;;;;7.10;96455.00;;;;8464986;28;20180;-76
2022/11/25 14:21:26;;;;;;;21.87;12.93;;;;;7.10;96447.00;;;;8470508;28;20198;-78
2022/11/25 14:25:47;;;;;;;25.40;14.07;;;;;7.20;96446.00;;;;8468210;28;20233;-77
2022/11/25 14:30:21;;;;;;;25.57;12.57;;;;;7.30;96439.00;;;;8468598;28;20218;-76
2022/11/25 14:35:02;;;;;;;27.00;13.47;;;;;7.40;96445.00;;;;8469425;28;20290;-76
2022/11/25 14:39:39;;;;;;;25.27;14.50;;;;;7.40;96452.00;;;;8469187;28;20197;-76
2022/11/25 14:44:14;;;;;;;24.27;13.17;;;;;7.40;96447.00;;;;8468665;28;20187;-76
2022/11/25 14:48:53;;;;;;;24.13;13.70;;;;;7.40;96447.00;;;;8468985;28;20752;-76
2022/11/25 14:52:56;;;;;;;21.87;12.67;;;;;7.40;96454.00;;;;8467800;28;20238;-76
2022/11/25 14:57:33;;;;;;;25.30;12.97;;;;;7.30;96460.00;;;;8468758;28;20195;-76
2022/11/25 15:07:08;;;;;;;28.47;12.63;;;;;7.10;96465.00;;;;8468007;28;20219;-76
2022/11/25 15:11:17;;;;;;;25.33;12.83;;;;;7.20;96465.00;;;;8467280;28;20195;-77
2022/11/25 15:15:22;;;;;;;29.93;12.50;;;;;7.20;96458.00;;;;8468021;28;20566;-78
2022/11/25 15:19:27;;;;;;;22.00;13.27;;;;;7.20;96471.00;;;;8467173;28;20221;-78
2022/11/25 15:23:37;;;;;;;23.67;13.23;;;;;7.20;96480.00;;;;8467093;28;20467;-77
2022/11/25 15:27:44;;;;;;;23.57;12.87;;;;;7.20;96471.00;;;;8467350;28;20222;-78
2022/11/25 15:31:51;;;;;;;23.67;12.23;;;;;7.20;96488.00;;;;8467605;28;20263;-77
2022/11/25 15:35:55;;;;;;;25.67;13.83;;;;;7.20;96500.00;;;;8466581;27;20217;-77
2022/11/25 15:40:35;;;;;;;24.47;12.27;;;;;7.00;96497.00;;;;8467874;28;20199;-72
2022/11/25 15:44:44;;;;;;;24.70;13.17;;;;;6.90;96494.00;;;;8466279;28;20570;-72
2022/11/25 15:48:51;;;;;;;27.33;13.23;;;;;6.90;96520.00;;;;8466622;28;20260;-71
2022/11/25 15:52:58;;;;;;;30.00;15.83;;;;;6.90;96520.00;;;;8465699;28;20195;-71
2022/11/25 15:57:30;;;;;;;42.57;19.67;;;;;6.90;96520.00;;;;8467223;28;20673;-72
2022/11/25 16:01:34;;;;;;;38.17;17.50;;;;;6.80;96530.00;;;;8466878;28;20194;-73
2022/11/25 16:05:53;;;;;;;38.65;16.17;;;;;6.70;96531.00;;;;8466932;28;20656;-73
2022/11/25 16:09:56;;;;;;;38.07;15.50;;;;;6.70;96537.00;;;;8466493;28;20214;-74
2022/11/25 16:14:17;;;;;;;43.33;16.50;;;;;6.70;96536.00;;;;8466519;28;20202;-75
2022/11/25 16:19:12;;;;;;;41.57;15.87;;;;;6.70;96541.00;;;;8466796;28;20250;-76
2022/11/25 16:23:17;;;;;;;40.60;16.73;;;;;6.80;96540.00;;;;8467867;28;20198;-77
2022/11/25 16:27:23;;;;;;;31.53;15.10;;;;;6.80;96543.00;;;;8465703;28;20222;-77
2022/11/25 16:31:27;;;;;;;44.33;16.90;;;;;6.80;96552.00;;;;8466715;28;20600;-77
2022/11/25 16:35:36;;;;;;;46.17;16.70;;;;;6.70;96546.00;;;;8466005;28;20278;-78
2022/11/25 16:39:40;;;;;;;43.20;16.87;;;;;6.70;96557.00;;;;8465520;28;20244;-78
2022/11/25 16:43:44;;;;;;;37.23;17.10;;;;;6.80;96566.00;;;;8466240;28;20191;-77
2022/11/25 16:47:47;;;;;;;38.37;16.67;;;;;6.80;96564.00;;;;8465359;28;20214;-76
2022/11/25 16:51:50;;;;;;;38.13;15.40;;;;;6.90;96569.00;;;;8465716;28;20186;-76
2022/11/25 16:55:56;;;;;;;39.43;16.70;;;;;6.90;96571.00;;;;8465384;28;20281;-76
2022/11/25 17:00:02;;;;;;;42.37;16.17;;;;;6.90;96578.00;;;;8465753;28;20198;-76
2022/11/25 17:04:06;;;;;;;39.07;15.50;;;;;7.00;96578.00;;;;8465233;28;20194;-75
2022/11/25 17:08:09;;;;;;;33.60;15.40;;;;;7.00;96588.00;;;;8466048;28;20214;-75
2022/11/25 17:12:45;;;;;;;35.47;14.87;;;;;7.10;96589.00;;;;8464741;28;20233;-75
2022/11/25 17:16:48;;;;;;;35.35;14.40;;;;;7.10;96581.00;;;;8465098;28;20199;-76
2022/11/25 17:20:51;;;;;;;37.40;13.33;;;;;7.10;96589.00;;;;8465225;28;20627;-75
2022/11/25 17:24:57;;;;;;;41.90;14.10;;;;;7.10;96598.00;;;;8465454;28;20618;-75
2022/11/25 17:29:05;;;;;;;33.97;13.17;;;;;7.20;96601.00;;;;8464573;28;20226;-75
2022/11/25 17:33:36;;;;;;;34.63;13.13;;;;;7.20;96610.00;;;;8466086;28;20684;-75
2022/11/25 17:37:39;;;;;;;26.57;12.10;;;;;7.20;96606.00;;;;8465131;28;20202;-75
2022/11/25 17:41:46;;;;;;;36.37;12.47;;;;;7.30;96600.00;;;;8465887;28;20574;-75
2022/11/25 17:45:51;;;;;;;31.13;11.90;;;;;7.30;96616.00;;;;8445956;28;20276;-76
2022/11/25 17:49:54;;;;;;;37.10;13.77;;;;;7.30;96623.00;;;;8431270;28;20252;-76
2022/11/25 17:54:28;;;;;;;35.23;14.77;;;;;7.30;96621.00;;;;8437532;28;20591;-76
2022/11/25 17:58:31;;;;;;;37.47;13.57;;;;;7.30;96624.00;;;;8437551;28;20272;-76
2022/11/25 18:02:36;;;;;;;35.83;13.97;;;;;7.40;96624.00;;;;8436383;28;20245;-76
2022/11/25 18:06:39;;;;;;;38.70;14.30;;;;;7.50;96627.00;;;;8436268;28;20665;-75
2022/11/25 18:11:16;;;;;;;42.17;15.17;;;;;7.50;96632.00;;;;8437584;28;20221;-75
2022/11/25 18:15:21;;;;;;;44.47;14.93;;;;;7.50;96642.00;;;;8436740;28;20252;-76
2022/11/25 18:19:26;;;;;;;42.10;14.67;;;;;7.60;96651.00;;;;8437099;28;20617;-75
2022/11/25 18:23:30;;;;;;;36.87;14.40;;;;;7.60;96660.00;;;;8436145;28;20195;-76
2022/11/25 18:27:33;;;;;;;42.77;15.87;;;;;7.70;96673.00;;;;8437346;28;20235;-76
2022/11/25 18:31:36;;;;;;;41.55;15.10;;;;;7.70;96675.00;;;;8435900;28;20238;-75
2022/11/25 18:35:42;;;;;;;45.77;15.50;;;;;7.80;96669.00;;;;8436615;28;20199;-75
2022/11/25 18:39:45;;;;;;;41.83;14.85;;;;;7.80;96677.00;;;;8435982;28;20266;-75
2022/11/25 18:43:49;;;;;;;42.97;15.20;;;;;7.80;96686.00;;;;8436746;28;20203;-76
2022/11/25 18:48:24;;;;;;;46.00;15.00;;;;;7.80;96685.00;;;;8435907;28;20224;-76
2022/11/25 18:52:31;;;;;;;41.60;15.18;;;;;7.90;96694.00;;;;8437139;28;20681;-75
2022/11/25 18:56:35;;;;;;;42.10;15.27;;;;;8.00;96701.00;;;;8435636;28;20601;-76
2022/11/25 19:05:37;;;;;;;43.28;14.88;;;;;8.00;96712.00;;;;8433877;28;20191;-76
2022/11/25 19:09:41;;;;;;;43.92;15.23;;;;;8.00;96732.00;;;;8434672;28;20652;-76
2022/11/25 19:13:49;;;;;;;42.23;14.43;;;;;8.00;96732.00;;;;8434925;28;20233;-77
2022/11/25 19:17:57;;;;;;;41.13;14.82;;;;;8.00;96734.00;;;;8433742;28;20276;-77
2022/11/25 19:22:30;;;;;;;45.17;14.68;;;;;8.10;96743.00;;;;8434041;28;20643;-77
2022/11/25 19:26:40;;;;;;;43.60;15.57;;;;;8.00;96750.00;;;;8433296;28;20288;-78
2022/11/25 19:30:44;;;;;;;45.00;15.17;;;;;8.00;96766.00;;;;8433879;28;20187;-77
2022/11/25 19:34:51;;;;;;;49.17;14.95;;;;;8.10;96775.00;;;;8434340;28;20252;-77
2022/11/25 19:38:55;;;;;;;43.92;15.00;;;;;8.10;96780.00;;;;8428978;28;20286;-77
2022/11/25 19:43:33;;;;;;;45.80;14.85;;;;;8.10;96795.00;;;;8432349;28;20252;-76
2022/11/25 19:48:07;;;;;;;49.33;19.37;;;;;8.10;96795.00;;;;8433732;28;20576;-76
2022/11/25 19:52:44;;;;;;;94.20;37.80;;;;;8.10;96804.00;;;;8426496;28;20701;-74
2022/11/25 19:57:23;;;;;;;55.55;18.35;;;;;8.10;96806.00;;;;8433354;28;20248;-75
2022/11/25 20:06:58;;;;;;;49.30;16.42;;;;;8.10;96830.00;;;;8433421;28;20589;-75
2022/11/25 20:11:02;;;;;;;42.90;15.75;;;;;8.20;96829.00;;;;8433398;28;20234;-74
2022/11/25 20:15:07;;;;;;;42.10;17.65;;;;;8.20;96849.00;;;;8432266;28;20587;-73
2022/11/25 20:19:41;;;;;;;46.42;16.33;;;;;8.20;96856.00;;;;8433017;28;20625;-73
2022/11/25 20:24:19;;;;;;;41.63;16.40;;;;;8.20;96852.00;;;;8432447;28;20191;-73
2022/11/25 20:28:26;;;;;;;51.53;19.52;;;;;8.20;96855.00;;;;8431310;28;20238;-75
2022/11/25 20:32:32;;;;;;;45.08;15.02;;;;;8.20;96866.00;;;;8432949;28;20662;-77
2022/11/25 20:37:14;;;;;;;48.30;15.40;;;;;8.20;96877.00;;;;8421182;28;20657;-78
2022/11/25 20:41:18;;;;;;;43.17;14.77;;;;;8.10;96883.00;;;;8427276;28;20195;-76
2022/11/25 20:45:55;;;;;;;42.08;14.25;;;;;8.20;96892.00;;;;8430249;28;20192;-76
2022/11/25 20:50:30;;;;;;;50.23;14.90;;;;;8.10;96899.00;;;;8432487;28;20710;-77
2022/11/25 20:54:34;;;;;;;45.30;15.00;;;;;8.10;96903.00;;;;8431556;28;20660;-76
2022/11/25 20:58:38;;;;;;;46.77;15.87;;;;;8.10;96912.00;;;;8432120;28;20203;-77
2022/11/25 21:02:56;;;;;;;52.00;16.00;;;;;8.10;96917.00;;;;8432218;28;20199;-77
2022/11/25 21:07:00;;;;;;;51.63;16.00;;;;;8.10;96922.00;;;;8431828;28;20242;-76
2022/11/25 21:11:04;;;;;;;43.83;15.33;;;;;8.20;96920.00;;;;8431688;28;20487;-76
2022/11/25 21:15:13;;;;;;;51.67;15.00;;;;;8.20;96936.00;;;;8431843;28;20195;-76
2022/11/25 21:19:17;;;;;;;52.25;15.18;;;;;8.10;96935.00;;;;8430779;28;20191;-77
2022/11/25 21:23:24;;;;;;;51.47;15.05;;;;;8.10;96943.00;;;;8432745;28;20582;-77
2022/11/25 21:27:57;;;;;;;50.25;14.98;;;;;8.10;96936.00;;;;8439239;28;20222;-77
2022/11/25 21:32:01;;;;;;;54.27;14.63;;;;;8.00;96939.00;;;;8442160;28;20636;-77
2022/11/25 21:36:37;;;;;;;50.63;16.50;;;;;7.90;96938.00;;;;8441906;28;20303;-77
2022/11/25 21:40:42;;;;;;;43.33;15.60;;;;;7.90;96947.00;;;;8443117;28;20195;-77
2022/11/25 21:44:46;;;;;;;62.50;17.20;;;;;8.00;96946.00;;;;8441651;28;20195;-77
2022/11/25 21:49:21;;;;;;;53.60;16.07;;;;;8.00;96956.00;;;;8443269;28;20215;-78
2022/11/25 21:53:25;;;;;;;64.53;16.97;;;;;8.00;96963.00;;;;8441452;28;20226;-78
2022/11/25 21:57:29;;;;;;;71.20;18.80;;;;;8.00;96961.00;;;;8442615;28;20624;-78
2022/11/25 22:06:30;;;;;;;58.07;17.37;;;;;8.00;96967.00;;;;8441702;28;20191;-78
2022/11/25 22:10:35;;;;;;;60.50;18.07;;;;;7.90;96979.00;;;;8441394;28;20222;-78
2022/11/25 22:14:39;;;;;;;63.80;18.33;;;;;7.90;96980.00;;;;8441446;28;20229;-78
2022/11/25 22:18:43;;;;;;;72.93;20.03;;;;;8.00;96975.00;;;;8441484;28;20679;-78
2022/11/25 22:23:20;;;;;;;66.20;18.00;;;;;8.00;96981.00;;;;8442187;28;20199;-78